createdAt,value
2022-08-09T00:00:06.157Z,25.80
2022-08-09T00:02:49.259Z,25.80
2022-08-09T00:06:18.564Z,25.80
2022-08-09T00:08:13.106Z,25.80
2022-08-09T00:10:59.953Z,25.70
2022-08-09T00:13:28.395Z,25.70
2022-08-09T00:16:02.912Z,25.70
2022-08-09T00:18:34.824Z,25.70
2022-08-09T00:21:05.086Z,25.70
2022-08-09T00:23:57.513Z,25.70
2022-08-09T00:26:33.984Z,25.70
2022-08-09T00:29:12.339Z,25.60
2022-08-09T00:32:00.919Z,25.60
2022-08-09T00:34:32.583Z,25.60
2022-08-09T00:37:04.287Z,25.60
2022-08-09T00:40:12.113Z,25.60
2022-08-09T00:44:15.309Z,25.60
2022-08-09T00:45:16.075Z,25.60
2022-08-09T00:47:44.189Z,25.60
2022-08-09T00:50:14.637Z,25.60
2022-08-09T00:52:44.147Z,25.60
2022-08-09T00:55:32.741Z,25.60
2022-08-09T00:58:02.920Z,25.60
2022-08-09T01:00:35.348Z,25.60
2022-08-09T01:03:18.606Z,25.60
2022-08-09T01:05:54.138Z,25.60
2022-08-09T01:08:48.916Z,25.60
2022-08-09T01:11:26.304Z,25.60
2022-08-09T01:14:01.762Z,25.50
2022-08-09T01:16:49.562Z,25.50
2022-08-09T01:19:39.647Z,25.50
2022-08-09T01:22:45.047Z,25.40
2022-08-09T01:25:41.531Z,25.40
2022-08-09T01:28:11.393Z,25.40
2022-08-09T01:30:51.849Z,25.40
2022-08-09T01:33:25.609Z,25.30
2022-08-09T01:36:07.597Z,25.30
2022-08-09T01:38:44.327Z,25.30
2022-08-09T01:41:25.857Z,25.20
2022-08-09T01:43:57.949Z,25.20
2022-08-09T01:46:29.431Z,25.10
2022-08-09T01:49:10.078Z,25.00
2022-08-09T01:51:44.329Z,25.00
2022-08-09T01:54:23.429Z,25.00
2022-08-09T01:56:55.772Z,25.00
2022-08-09T01:59:24.712Z,25.00
2022-08-09T02:02:03.860Z,25.00
2022-08-09T02:04:33.863Z,25.00
2022-08-09T02:07:18.058Z,25.00
2022-08-09T02:10:07.104Z,25.00
2022-08-09T02:12:41.778Z,24.90
2022-08-09T02:15:16.887Z,24.90
2022-08-09T02:18:01.155Z,25.00
2022-08-09T02:20:44.035Z,24.90
2022-08-09T02:23:25.413Z,24.90
2022-08-09T02:26:05.174Z,24.90
2022-08-09T02:28:35.843Z,24.90
2022-08-09T02:31:12.701Z,24.90
2022-08-09T02:34:06.788Z,24.80
2022-08-09T02:36:41.985Z,24.80
2022-08-09T02:39:33.712Z,24.80
2022-08-09T02:42:08.318Z,24.70
2022-08-09T02:44:38.666Z,24.60
2022-08-09T02:47:09.794Z,24.60
2022-08-09T02:49:55.417Z,24.60
2022-08-09T02:52:40.446Z,24.60
2022-08-09T02:55:15.207Z,24.50
2022-08-09T02:58:00.719Z,24.50
2022-08-09T03:00:47.982Z,24.50
2022-08-09T03:04:12.551Z,24.50
2022-08-09T03:06:18.586Z,24.50
2022-08-09T03:08:51.012Z,24.50
2022-08-09T03:12:04.649Z,24.40
2022-08-09T03:14:11.912Z,24.30
2022-08-09T03:16:45.309Z,24.30
2022-08-09T03:19:59.001Z,24.30
2022-08-09T03:22:12.188Z,24.30
2022-08-09T03:25:06.503Z,24.30
2022-08-09T03:27:47.109Z,24.30
2022-08-09T03:30:29.351Z,24.30
2022-08-09T03:33:05.546Z,24.30
2022-08-09T03:36:11.699Z,24.30
2022-08-09T03:38:28.660Z,24.30
2022-08-09T03:40:58.451Z,24.20
2022-08-09T03:43:32.018Z,24.20
2022-08-09T03:46:03.328Z,24.20
2022-08-09T03:48:51.452Z,24.20
2022-08-09T03:51:56.535Z,24.10
2022-08-09T03:54:11.593Z,24.10
2022-08-09T03:56:41.873Z,24.10
2022-08-09T03:59:27.096Z,24.00
2022-08-09T04:01:59.283Z,24.00
2022-08-09T04:04:32.533Z,23.90
2022-08-09T04:07:08.669Z,23.90
2022-08-09T04:09:48.214Z,23.90
2022-08-09T04:12:33.012Z,23.90
2022-08-09T04:15:11.166Z,23.90
2022-08-09T04:17:43.646Z,23.90
2022-08-09T04:20:13.152Z,23.80
2022-08-09T04:22:44.191Z,23.80
2022-08-09T04:25:13.752Z,23.70
2022-08-09T04:27:42.228Z,23.70
2022-08-09T04:30:23.311Z,23.70
2022-08-09T04:32:54.083Z,23.70
2022-08-09T04:35:21.805Z,23.70
2022-08-09T04:37:50.164Z,23.70
2022-08-09T04:40:28.897Z,23.70
2022-08-09T04:43:06.899Z,23.70
2022-08-09T04:45:36.260Z,23.80
2022-08-09T04:48:21.163Z,23.70
2022-08-09T04:50:50.904Z,23.70
2022-08-09T04:53:18.441Z,23.80
2022-08-09T04:55:57.426Z,23.80
2022-08-09T04:58:31.733Z,23.80
2022-08-09T05:01:03.674Z,23.90
2022-08-09T05:03:44.194Z,23.90
2022-08-09T05:06:26.827Z,24.00
2022-08-09T05:09:00.310Z,24.10
2022-08-09T05:11:35.481Z,24.20
2022-08-09T05:14:09.557Z,24.20
2022-08-09T05:16:58.215Z,24.30
2022-08-09T05:19:31.926Z,24.30
2022-08-09T05:22:28.280Z,24.40
2022-08-09T05:25:02.938Z,24.40
2022-08-09T05:27:30.248Z,24.30
2022-08-09T05:29:58.953Z,24.40
2022-08-09T05:32:30.099Z,24.40
2022-08-09T05:34:57.567Z,24.40
2022-08-09T05:37:26.385Z,24.50
2022-08-09T05:39:54.795Z,24.50
2022-08-09T05:42:28.060Z,24.60
2022-08-09T05:44:56.711Z,24.70
2022-08-09T05:47:27.150Z,24.80
2022-08-09T05:50:24.135Z,25.00
2022-08-09T05:52:53.323Z,25.10
2022-08-09T05:55:24.014Z,25.20
2022-08-09T05:57:56.469Z,25.20
2022-08-09T06:00:29.826Z,25.40
2022-08-09T06:02:58.867Z,25.50
2022-08-09T06:05:31.362Z,25.70
2022-08-09T06:08:19.754Z,25.80
2022-08-09T06:10:56.230Z,26.00
2022-08-09T06:13:28.685Z,26.20
2022-08-09T06:16:01.678Z,26.30
2022-08-09T06:18:32.829Z,26.40
2022-08-09T06:21:01.504Z,26.50
2022-08-09T06:23:57.302Z,26.60
2022-08-09T06:26:22.140Z,26.80
2022-08-09T06:28:59.327Z,26.90
2022-08-09T06:31:31.579Z,27.00
2022-08-09T06:34:07.330Z,27.20
2022-08-09T06:36:35.002Z,27.20
2022-08-09T06:39:08.883Z,27.40
2022-08-09T06:42:07.821Z,27.40
2022-08-09T06:44:27.629Z,27.60
2022-08-09T06:46:55.641Z,27.70
2022-08-09T06:49:44.894Z,27.80
2022-08-09T06:52:15.651Z,27.90
2022-08-09T06:54:44.715Z,28.00
2022-08-09T06:57:12.142Z,28.20
2022-08-09T07:00:54.584Z,28.30
2022-08-09T07:02:34.018Z,28.30
2022-08-09T07:05:04.508Z,28.40
2022-08-09T07:08:00.361Z,28.50
2022-08-09T07:10:29.332Z,28.70
2022-08-09T07:12:58.353Z,28.80
2022-08-09T07:15:54.014Z,28.90
2022-08-09T07:18:15.162Z,29.00
2022-08-09T07:20:44.407Z,29.10
2022-08-09T07:23:18.147Z,29.30
2022-08-09T07:25:47.610Z,29.40
2022-08-09T07:28:26.349Z,29.50
2022-08-09T07:30:55.646Z,29.60
2022-08-09T07:33:23.278Z,29.70
2022-08-09T07:35:53.825Z,29.80
2022-08-09T07:38:23.263Z,29.90
2022-08-09T07:41:08.349Z,30.00
2022-08-09T07:43:41.057Z,30.20
2022-08-09T07:46:10.707Z,30.20
2022-08-09T07:48:44.572Z,30.30
2022-08-09T07:52:04.979Z,30.30
2022-08-09T07:54:08.702Z,30.50
2022-08-09T07:56:45.074Z,30.60
2022-08-09T07:59:25.426Z,30.80
2022-08-09T08:02:06.534Z,30.90
2022-08-09T08:04:34.311Z,31.10
2022-08-09T08:07:15.551Z,31.20
2022-08-09T08:09:54.935Z,31.30
2022-08-09T08:12:32.907Z,31.30
2022-08-09T08:15:00.318Z,31.40
2022-08-09T08:17:52.572Z,31.40
2022-08-09T08:20:15.696Z,31.40
2022-08-09T08:22:43.336Z,31.30
2022-08-09T08:25:15.783Z,31.20
2022-08-09T08:27:43.356Z,31.10
2022-08-09T08:30:18.547Z,31.00
2022-08-09T08:32:53.553Z,31.10
2022-08-09T08:35:22.305Z,31.20
2022-08-09T08:38:04.654Z,31.30
2022-08-09T08:40:38.750Z,31.40
2022-08-09T08:43:13.383Z,31.40
2022-08-09T08:46:04.111Z,31.30
2022-08-09T08:48:51.223Z,31.30
2022-08-09T08:51:23.112Z,31.30
2022-08-09T08:54:03.716Z,31.30
2022-08-09T08:56:39.596Z,31.30
2022-08-09T08:59:19.299Z,31.40
2022-08-09T09:01:52.953Z,31.40
2022-08-09T09:04:31.118Z,31.50
2022-08-09T09:07:09.121Z,31.50
2022-08-09T09:10:01.489Z,31.60
2022-08-09T09:12:32.050Z,31.60
2022-08-09T09:15:05.704Z,31.60
2022-08-09T09:17:48.331Z,31.50
2022-08-09T09:20:21.200Z,31.50
2022-08-09T09:23:01.594Z,31.50
2022-08-09T09:26:04.536Z,31.60
2022-08-09T09:29:01.670Z,31.70
2022-08-09T09:32:03.828Z,31.80
2022-08-09T09:34:14.205Z,31.90
2022-08-09T09:36:51.191Z,31.90
2022-08-09T09:39:55.093Z,32.10
2022-08-09T09:42:29.622Z,32.10
2022-08-09T09:44:59.220Z,32.10
2022-08-09T09:47:28.532Z,32.00
2022-08-09T09:50:14.333Z,32.00
2022-08-09T09:52:56.056Z,32.10
2022-08-09T09:55:32.175Z,32.20
2022-08-09T09:58:19.137Z,32.20
2022-08-09T10:00:52.671Z,32.30
2022-08-09T10:03:57.096Z,32.40
2022-08-09T10:06:42.638Z,32.60
2022-08-09T10:09:22.342Z,32.70
2022-08-09T10:12:07.701Z,32.80
2022-08-09T10:14:47.753Z,32.80
2022-08-09T10:17:39.427Z,33.00
2022-08-09T10:20:14.921Z,33.20
2022-08-09T10:22:45.062Z,33.30
2022-08-09T10:25:14.500Z,33.30
2022-08-09T10:27:56.141Z,33.30
2022-08-09T10:34:07.863Z,33.00
2022-08-09T10:36:04.888Z,33.00
2022-08-09T10:38:34.028Z,32.90
2022-08-09T10:41:20.593Z,32.90
2022-08-09T10:43:59.381Z,33.00
2022-08-09T10:46:54.720Z,33.00
2022-08-09T10:49:50.230Z,33.10
2022-08-09T10:52:46.268Z,33.20
2022-08-09T10:55:24.562Z,33.30
2022-08-09T10:57:55.632Z,33.30
2022-08-09T11:00:34.341Z,33.20
2022-08-09T11:03:19.531Z,33.20
2022-08-09T11:06:15.571Z,33.30
2022-08-09T11:08:51.119Z,33.50
2022-08-09T11:11:20.895Z,33.60
2022-08-09T11:14:28.067Z,33.50
2022-08-09T11:16:56.533Z,33.50
2022-08-09T11:20:10.263Z,33.50
2022-08-09T11:22:42.001Z,33.40
2022-08-09T11:25:15.658Z,33.40
2022-08-09T11:28:03.821Z,33.30
2022-08-09T11:30:38.065Z,33.30
2022-08-09T11:33:17.514Z,33.20
2022-08-09T11:35:51.729Z,33.20
2022-08-09T11:38:32.570Z,33.30
2022-08-09T11:41:16.595Z,33.40
2022-08-09T11:43:48.962Z,33.50
2022-08-09T11:46:26.784Z,33.60
2022-08-09T11:49:00.318Z,33.70
2022-08-09T11:53:02.395Z,33.90
2022-08-09T11:54:27.951Z,33.90
2022-08-09T11:57:47.668Z,33.90
2022-08-09T12:00:28.943Z,33.80
2022-08-09T12:02:57.965Z,33.90
2022-08-09T12:05:37.652Z,33.90
2022-08-09T12:08:12.572Z,33.90
2022-08-09T12:10:59.321Z,34.00
2022-08-09T12:14:10.013Z,34.10
2022-08-09T12:16:38.579Z,34.10
2022-08-09T12:19:09.589Z,34.10
2022-08-09T12:21:48.748Z,34.10
2022-08-09T12:24:25.270Z,34.10
2022-08-09T12:29:00.252Z,34.20
2022-08-09T12:30:00.018Z,34.10
2022-08-09T12:32:31.941Z,34.10
2022-08-09T12:35:04.729Z,34.10
2022-08-09T12:37:49.777Z,34.10
2022-08-09T12:40:19.248Z,34.10
2022-08-09T12:42:50.633Z,34.10
2022-08-09T12:45:34.899Z,34.10
2022-08-09T12:48:19.867Z,34.10
2022-08-09T12:50:59.237Z,34.10
2022-08-09T12:53:44.799Z,34.20
2022-08-09T12:56:39.382Z,34.10
2022-08-09T12:59:21.773Z,34.00
2022-08-09T13:02:09.416Z,33.90
2022-08-09T13:04:38.706Z,33.80
2022-08-09T13:07:19.816Z,33.80
2022-08-09T13:09:55.951Z,33.90
2022-08-09T13:12:29.281Z,33.80
2022-08-09T13:15:09.610Z,33.90
2022-08-09T13:18:03.545Z,33.90
2022-08-09T13:21:03.935Z,33.80
2022-08-09T13:24:17.507Z,33.70
2022-08-09T13:26:37.013Z,33.70
2022-08-09T13:29:17.548Z,33.70
2022-08-09T13:32:13.831Z,33.70
2022-08-09T13:34:47.314Z,33.60
2022-08-09T13:37:24.804Z,33.70
2022-08-09T13:41:50.973Z,33.70
2022-08-09T13:42:52.113Z,33.60
2022-08-09T13:45:20.204Z,33.60
2022-08-09T13:47:53.723Z,33.60
2022-08-09T13:50:30.282Z,33.50
2022-08-09T13:52:59.359Z,33.40
2022-08-09T13:55:30.648Z,33.40
2022-08-09T14:01:56.407Z,33.40
2022-08-09T14:04:31.055Z,33.40
2022-08-09T14:07:30.251Z,33.40
2022-08-09T14:10:53.396Z,33.30
2022-08-09T14:22:14.057Z,33.20
2022-08-09T14:27:24.489Z,33.20
2022-08-09T14:30:35.524Z,33.20
2022-08-09T14:32:41.649Z,33.30
2022-08-09T14:35:10.210Z,33.20
2022-08-09T14:38:01.564Z,33.20
2022-08-09T14:41:00.784Z,33.20
2022-08-09T14:43:18.521Z,33.10
2022-08-09T14:46:54.054Z,33.00
2022-08-09T14:48:33.311Z,32.90
2022-08-09T14:51:00.313Z,32.90
2022-08-09T14:53:27.465Z,32.80
2022-08-09T14:55:54.533Z,32.80
2022-08-09T14:58:21.814Z,32.80
2022-08-09T15:00:51.199Z,32.80
2022-08-09T15:03:20.914Z,32.70
2022-08-09T15:05:51.256Z,32.70
2022-08-09T15:08:23.660Z,32.80
2022-08-09T15:11:00.919Z,32.80
2022-08-09T15:13:47.865Z,32.70
2022-08-09T15:16:17.127Z,32.80
2022-08-09T15:18:44.338Z,32.80
2022-08-09T15:21:58.872Z,32.70
2022-08-09T15:24:12.395Z,32.70
2022-08-09T15:26:45.326Z,32.80
2022-08-09T15:30:56.077Z,32.80
2022-08-09T15:32:00.996Z,32.80
2022-08-09T15:34:34.755Z,32.80
2022-08-09T15:37:24.331Z,32.80
2022-08-09T15:40:11.745Z,32.70
2022-08-09T15:42:40.566Z,32.60
2022-08-09T15:45:15.406Z,32.60
2022-08-09T15:48:02.575Z,32.60
2022-08-09T15:50:39.227Z,32.60
2022-08-09T15:53:32.700Z,32.50
2022-08-09T15:56:21.538Z,32.40
2022-08-09T15:58:46.360Z,32.40
2022-08-09T16:01:14.649Z,32.30
2022-08-09T16:03:42.325Z,32.30
2022-08-09T16:06:27.230Z,32.20
2022-08-09T16:09:01.252Z,32.20
2022-08-09T16:11:30.742Z,32.20
2022-08-09T16:14:04.879Z,32.00
2022-08-09T16:16:32.974Z,32.00
2022-08-09T16:19:02.082Z,32.00
2022-08-09T16:21:31.518Z,32.00
2022-08-09T16:24:08.826Z,31.90
2022-08-09T16:26:48.929Z,31.80
2022-08-09T16:29:20.199Z,31.80
2022-08-09T16:32:17.663Z,31.70
2022-08-09T16:34:53.565Z,31.70
2022-08-09T16:37:53.811Z,31.70
2022-08-09T16:40:13.210Z,31.70
2022-08-09T16:42:45.563Z,31.70
2022-08-09T16:45:17.592Z,31.60
2022-08-09T16:48:41.703Z,31.50
2022-08-09T16:50:38.588Z,31.40
2022-08-09T16:53:06.543Z,31.40
2022-08-09T16:55:57.905Z,31.40
2022-08-09T16:58:24.639Z,31.40
2022-08-09T17:00:53.133Z,31.40
2022-08-09T17:03:22.796Z,31.30
2022-08-09T17:06:07.112Z,31.30
2022-08-09T17:08:58.994Z,31.30
2022-08-09T17:11:40.112Z,31.20
2022-08-09T17:14:26.193Z,31.20
2022-08-09T17:17:00.179Z,31.20
2022-08-09T17:20:06.074Z,31.10
2022-08-09T17:22:24.219Z,31.10
2022-08-09T17:24:54.894Z,31.00
2022-08-09T17:27:23.695Z,31.00
2022-08-09T17:29:51.444Z,31.00
2022-08-09T17:32:35.038Z,30.90
2022-08-09T17:35:11.242Z,30.90
2022-08-09T17:38:11.522Z,30.90
2022-08-09T17:40:28.076Z,30.80
2022-08-09T17:42:59.206Z,30.70
2022-08-09T17:46:01.560Z,30.70
2022-08-09T17:48:18.316Z,30.60
2022-08-09T17:50:59.311Z,30.60
2022-08-09T17:53:43.500Z,30.50
2022-08-09T17:56:18.172Z,30.50
2022-08-09T17:58:45.638Z,30.40
2022-08-09T18:01:22.138Z,30.30
2022-08-09T18:03:54.324Z,30.30
2022-08-09T18:06:32.495Z,30.20
2022-08-09T18:09:06.077Z,30.10
2022-08-09T18:12:05.409Z,30.10
2022-08-09T18:14:23.065Z,30.00
2022-08-09T18:16:51.055Z,29.90
2022-08-09T18:20:57.017Z,29.90
2022-08-09T18:22:16.899Z,29.80
2022-08-09T18:24:47.881Z,29.70
2022-08-09T18:27:49.068Z,29.60
2022-08-09T18:30:42.346Z,29.50
2022-08-09T18:32:54.619Z,29.40
2022-08-09T18:35:47.913Z,29.30
2022-08-09T18:38:11.761Z,29.30
2022-08-09T18:40:43.050Z,29.10
2022-08-09T18:43:12.919Z,29.10
2022-08-09T18:46:51.209Z,29.00
2022-08-09T18:48:32.684Z,28.90
2022-08-09T18:51:01.384Z,28.80
2022-08-09T18:54:00.972Z,28.80
2022-08-09T18:56:17.104Z,28.70
2022-08-09T18:58:47.728Z,28.60
2022-08-09T19:01:22.864Z,28.50
2022-08-09T19:04:01.858Z,28.40
2022-08-09T19:06:34.640Z,28.30
2022-08-09T19:09:05.259Z,28.30
2022-08-09T19:11:37.606Z,28.20
2022-08-09T19:14:06.891Z,28.10
2022-08-09T19:16:37.841Z,28.00
2022-08-09T19:19:19.235Z,28.00
2022-08-09T19:22:04.546Z,27.90
2022-08-09T19:24:39.725Z,27.80
2022-08-09T19:27:21.915Z,27.70
2022-08-09T19:30:21.589Z,27.70
2022-08-09T19:32:37.101Z,27.60
2022-08-09T19:35:05.467Z,27.50
2022-08-09T19:37:54.033Z,27.40
2022-08-09T19:40:21.269Z,27.30
2022-08-09T19:42:49.648Z,27.30
2022-08-09T19:45:18.585Z,27.20
2022-08-09T19:47:45.907Z,27.10
2022-08-09T19:50:51.006Z,27.10
2022-08-09T19:53:04.009Z,27.00
2022-08-09T19:56:03.476Z,27.00
2022-08-09T19:58:30.193Z,27.00
2022-08-09T20:00:58.426Z,26.90
2022-08-09T20:04:18.583Z,26.80
2022-08-09T20:06:23.909Z,26.70
2022-08-09T20:08:57.706Z,26.70
2022-08-09T20:11:42.902Z,26.70
2022-08-09T20:14:15.175Z,26.60
2022-08-09T20:16:49.944Z,26.60
2022-08-09T20:19:42.234Z,26.50
2022-08-09T20:22:10.253Z,26.50
2022-08-09T20:24:42.390Z,26.40
2022-08-09T20:27:11.671Z,26.40
2022-08-09T20:29:41.157Z,26.40
2022-08-09T20:32:31.022Z,26.30
2022-08-09T20:34:59.294Z,26.20
2022-08-09T20:38:18.594Z,26.10
2022-08-09T20:40:18.393Z,26.10
2022-08-09T20:42:59.425Z,26.10
2022-08-09T20:45:59.070Z,26.10
2022-08-09T20:48:15.804Z,26.00
2022-08-09T20:50:51.153Z,25.90
2022-08-09T20:53:37.095Z,25.90
2022-08-09T20:56:20.517Z,25.90
2022-08-09T20:58:50.484Z,25.80
2022-08-09T21:01:34.696Z,25.80
2022-08-09T21:05:54.481Z,25.70
2022-08-09T21:06:56.624Z,25.60
2022-08-09T21:09:32.608Z,25.60
2022-08-09T21:14:41.809Z,25.60
2022-08-09T21:18:21.642Z,25.60
2022-08-09T21:20:17.721Z,25.60
2022-08-09T21:22:52.706Z,25.60
2022-08-09T21:25:44.461Z,25.60
2022-08-09T21:28:34.247Z,25.60
2022-08-09T21:31:17.186Z,25.50
2022-08-09T21:33:52.384Z,25.50
2022-08-09T21:36:28.158Z,25.50
2022-08-09T21:39:00.030Z,25.40
2022-08-09T21:42:04.827Z,25.50
2022-08-09T21:44:34.197Z,25.50
2022-08-09T21:47:09.737Z,25.40
2022-08-09T21:49:39.589Z,25.40
2022-08-09T21:52:17.584Z,25.40
2022-08-09T21:55:03.427Z,25.40
2022-08-09T21:57:39.560Z,25.40
2022-08-09T22:00:33.232Z,25.30
2022-08-09T22:03:07.047Z,25.30
2022-08-09T22:05:37.407Z,25.20
2022-08-09T22:08:14.680Z,25.10
2022-08-09T22:11:05.129Z,25.10
2022-08-09T22:13:36.659Z,25.10
2022-08-09T22:16:07.562Z,25.10
2022-08-09T22:18:53.236Z,25.00
2022-08-09T22:21:24.820Z,25.00
2022-08-09T22:23:59.847Z,25.00
2022-08-09T22:26:38.102Z,24.90
2022-08-09T22:29:09.205Z,24.90
2022-08-09T22:31:50.357Z,24.80
2022-08-09T22:34:26.307Z,24.80
2022-08-09T22:36:59.138Z,24.80
2022-08-09T22:39:57.501Z,24.70
2022-08-09T22:42:21.430Z,24.70
2022-08-09T22:45:18.472Z,24.60
2022-08-09T22:48:17.011Z,24.60
2022-08-09T22:50:31.644Z,24.60
2022-08-09T22:53:03.506Z,24.60
2022-08-09T22:56:06.679Z,24.60
2022-08-09T22:58:20.433Z,24.60
2022-08-09T23:01:05.644Z,24.60
2022-08-09T23:04:05.783Z,24.60
2022-08-09T23:06:35.005Z,24.50
2022-08-09T23:09:05.009Z,24.50
2022-08-09T23:11:32.473Z,24.50
2022-08-09T23:14:00.907Z,24.40
2022-08-09T23:16:28.162Z,24.40
2022-08-09T23:18:55.357Z,24.30
2022-08-09T23:21:25.314Z,24.30
2022-08-09T23:24:05.181Z,24.20
2022-08-09T23:26:37.185Z,24.20
2022-08-09T23:29:06.165Z,24.10
2022-08-09T23:31:34.258Z,24.10
2022-08-09T23:34:04.691Z,24.00
2022-08-09T23:36:32.665Z,23.90
2022-08-09T23:39:00.239Z,23.90
2022-08-09T23:41:29.496Z,23.80
2022-08-09T23:44:01.707Z,23.70
2022-08-09T23:46:30.511Z,23.70
2022-08-09T23:48:59.328Z,23.70
2022-08-09T23:51:27.445Z,23.60
2022-08-09T23:54:03.249Z,23.60
2022-08-09T23:56:52.029Z,23.60
2022-08-09T23:59:20.836Z,23.50
